sensor_id;sensor_type;location;lat;lon;timestamp;P1;durP1;ratioP1;P2;durP2;ratioP2
69981;SDS011;57319;56.274;43.980;2023-02-15T00:01:10;32.08;;;12.93;;
69981;SDS011;57319;56.274;43.980;2023-02-15T00:03:36;24.95;;;12.38;;
69981;SDS011;57319;56.274;43.980;2023-02-15T00:06:03;26.23;;;13.63;;
69981;SDS011;57319;56.274;43.980;2023-02-15T00:08:30;25.17;;;11.98;;
69981;SDS011;57319;56.274;43.980;2023-02-15T00:11:09;30.23;;;13.25;;
69981;SDS011;57319;56.274;43.980;2023-02-15T00:13:36;25.80;;;12.00;;
69981;SDS011;57319;56.274;43.980;2023-02-15T00:16:05;18.67;;;11.05;;
69981;SDS011;57319;56.274;43.980;2023-02-15T00:18:32;26.17;;;12.52;;
69981;SDS011;57319;56.274;43.980;2023-02-15T00:20:58;24.05;;;12.52;;
69981;SDS011;57319;56.274;43.980;2023-02-15T00:23:28;29.20;;;12.05;;
69981;SDS011;57319;56.274;43.980;2023-02-15T00:26:02;27.90;;;12.88;;
69981;SDS011;57319;56.274;43.980;2023-02-15T00:28:35;27.90;;;13.00;;
69981;SDS011;57319;56.274;43.980;2023-02-15T00:31:10;27.52;;;12.85;;
69981;SDS011;57319;56.274;43.980;2023-02-15T00:33:37;22.60;;;12.75;;
69981;SDS011;57319;56.274;43.980;2023-02-15T00:36:05;30.23;;;13.45;;
69981;SDS011;57319;56.274;43.980;2023-02-15T00:38:32;28.17;;;11.98;;
69981;SDS011;57319;56.274;43.980;2023-02-15T00:40:59;21.70;;;10.65;;
69981;SDS011;57319;56.274;43.980;2023-02-15T00:43:25;24.13;;;12.45;;
69981;SDS011;57319;56.274;43.980;2023-02-15T00:45:52;20.50;;;11.00;;
69981;SDS011;57319;56.274;43.980;2023-02-15T00:48:18;28.48;;;10.77;;
69981;SDS011;57319;56.274;43.980;2023-02-15T00:50:45;23.42;;;11.15;;
69981;SDS011;57319;56.274;43.980;2023-02-15T00:53:11;22.10;;;11.25;;
69981;SDS011;57319;56.274;43.980;2023-02-15T00:55:37;17.77;;;9.23;;
69981;SDS011;57319;56.274;43.980;2023-02-15T00:58:05;17.55;;;9.63;;
69981;SDS011;57319;56.274;43.980;2023-02-15T01:00:31;18.67;;;10.38;;
69981;SDS011;57319;56.274;43.980;2023-02-15T01:02:56;22.55;;;11.38;;
69981;SDS011;57319;56.274;43.980;2023-02-15T01:05:22;18.90;;;9.70;;
69981;SDS011;57319;56.274;43.980;2023-02-15T01:07:47;27.88;;;11.80;;
69981;SDS011;57319;56.274;43.980;2023-02-15T01:10:13;20.48;;;10.30;;
69981;SDS011;57319;56.274;43.980;2023-02-15T01:12:39;20.35;;;10.95;;
69981;SDS011;57319;56.274;43.980;2023-02-15T01:15:05;28.33;;;11.23;;
69981;SDS011;57319;56.274;43.980;2023-02-15T01:17:31;24.98;;;11.85;;
69981;SDS011;57319;56.274;43.980;2023-02-15T01:19:57;30.70;;;12.07;;
69981;SDS011;57319;56.274;43.980;2023-02-15T01:22:22;31.98;;;13.93;;
69981;SDS011;57319;56.274;43.980;2023-02-15T01:24:51;32.05;;;13.48;;
69981;SDS011;57319;56.274;43.980;2023-02-15T01:27:16;30.15;;;11.77;;
69981;SDS011;57319;56.274;43.980;2023-02-15T01:29:42;23.83;;;12.50;;
69981;SDS011;57319;56.274;43.980;2023-02-15T01:32:08;30.00;;;13.25;;
69981;SDS011;57319;56.274;43.980;2023-02-15T01:34:34;29.05;;;12.45;;
69981;SDS011;57319;56.274;43.980;2023-02-15T01:37:00;26.50;;;13.00;;
69981;SDS011;57319;56.274;43.980;2023-02-15T01:39:26;25.67;;;11.63;;
69981;SDS011;57319;56.274;43.980;2023-02-15T01:41:51;26.15;;;12.45;;
69981;SDS011;57319;56.274;43.980;2023-02-15T01:47:11;24.73;;;11.60;;
69981;SDS011;57319;56.274;43.980;2023-02-15T01:49:41;27.65;;;12.48;;
69981;SDS011;57319;56.274;43.980;2023-02-15T01:52:10;28.40;;;12.15;;
69981;SDS011;57319;56.274;43.980;2023-02-15T01:54:41;22.17;;;11.77;;
69981;SDS011;57319;56.274;43.980;2023-02-15T01:57:13;23.08;;;11.93;;
69981;SDS011;57319;56.274;43.980;2023-02-15T01:59:45;22.85;;;11.77;;
69981;SDS011;57319;56.274;43.980;2023-02-15T02:02:13;22.33;;;10.80;;
69981;SDS011;57319;56.274;43.980;2023-02-15T02:04:46;20.17;;;11.68;;
69981;SDS011;57319;56.274;43.980;2023-02-15T02:07:14;24.80;;;11.45;;
69981;SDS011;57319;56.274;43.980;2023-02-15T02:09:42;23.27;;;11.02;;
69981;SDS011;57319;56.274;43.980;2023-02-15T02:12:09;24.05;;;11.10;;
69981;SDS011;57319;56.274;43.980;2023-02-15T02:14:35;21.98;;;10.65;;
69981;SDS011;57319;56.274;43.980;2023-02-15T02:17:28;22.55;;;10.93;;
69981;SDS011;57319;56.274;43.980;2023-02-15T02:22:28;19.65;;;10.80;;
69981;SDS011;57319;56.274;43.980;2023-02-15T02:25:47;21.38;;;11.48;;
69981;SDS011;57319;56.274;43.980;2023-02-15T02:28:25;17.02;;;10.25;;
69981;SDS011;57319;56.274;43.980;2023-02-15T02:34:40;26.02;;;9.77;;
69981;SDS011;57319;56.274;43.980;2023-02-15T02:37:29;19.13;;;10.63;;
69981;SDS011;57319;56.274;43.980;2023-02-15T02:42:43;21.77;;;11.20;;
69981;SDS011;57319;56.274;43.980;2023-02-15T02:45:20;21.70;;;11.15;;
69981;SDS011;57319;56.274;43.980;2023-02-15T02:47:52;22.95;;;11.38;;
69981;SDS011;57319;56.274;43.980;2023-02-15T02:50:26;26.27;;;11.63;;
69981;SDS011;57319;56.274;43.980;2023-02-15T02:52:54;25.30;;;12.25;;
69981;SDS011;57319;56.274;43.980;2023-02-15T02:55:22;20.77;;;11.32;;
69981;SDS011;57319;56.274;43.980;2023-02-15T03:03:21;21.55;;;11.32;;
69981;SDS011;57319;56.274;43.980;2023-02-15T03:05:57;19.55;;;11.00;;
69981;SDS011;57319;56.274;43.980;2023-02-15T03:08:26;23.27;;;11.68;;
69981;SDS011;57319;56.274;43.980;2023-02-15T03:10:59;23.83;;;11.05;;
69981;SDS011;57319;56.274;43.980;2023-02-15T03:13:27;25.77;;;11.63;;
69981;SDS011;57319;56.274;43.980;2023-02-15T03:15:53;21.17;;;11.70;;
69981;SDS011;57319;56.274;43.980;2023-02-15T03:18:42;21.10;;;11.40;;
69981;SDS011;57319;56.274;43.980;2023-02-15T03:21:19;23.48;;;11.45;;
69981;SDS011;57319;56.274;43.980;2023-02-15T03:23:52;19.85;;;11.05;;
69981;SDS011;57319;56.274;43.980;2023-02-15T03:26:32;21.95;;;10.88;;
69981;SDS011;57319;56.274;43.980;2023-02-15T03:28:59;24.13;;;11.93;;
69981;SDS011;57319;56.274;43.980;2023-02-15T03:31:29;22.50;;;11.40;;
69981;SDS011;57319;56.274;43.980;2023-02-15T03:34:00;20.58;;;11.07;;
69981;SDS011;57319;56.274;43.980;2023-02-15T03:38:58;21.15;;;12.23;;
69981;SDS011;57319;56.274;43.980;2023-02-15T03:41:26;21.30;;;11.15;;
69981;SDS011;57319;56.274;43.980;2023-02-15T03:44:04;23.00;;;12.00;;
69981;SDS011;57319;56.274;43.980;2023-02-15T03:46:47;23.25;;;11.98;;
69981;SDS011;57319;56.274;43.980;2023-02-15T03:50:03;23.20;;;12.32;;
69981;SDS011;57319;56.274;43.980;2023-02-15T03:52:20;19.45;;;11.35;;
69981;SDS011;57319;56.274;43.980;2023-02-15T03:54:47;18.05;;;11.52;;
69981;SDS011;57319;56.274;43.980;2023-02-15T03:57:21;19.35;;;11.38;;
69981;SDS011;57319;56.274;43.980;2023-02-15T04:03:04;25.48;;;11.32;;
69981;SDS011;57319;56.274;43.980;2023-02-15T04:05:36;19.60;;;11.15;;
69981;SDS011;57319;56.274;43.980;2023-02-15T04:08:02;19.15;;;10.90;;
69981;SDS011;57319;56.274;43.980;2023-02-15T04:10:27;25.30;;;11.85;;
69981;SDS011;57319;56.274;43.980;2023-02-15T04:13:11;23.60;;;11.40;;
69981;SDS011;57319;56.274;43.980;2023-02-15T04:15:37;20.90;;;10.82;;
69981;SDS011;57319;56.274;43.980;2023-02-15T04:18:21;19.67;;;11.57;;
69981;SDS011;57319;56.274;43.980;2023-02-15T04:21:07;22.65;;;11.60;;
69981;SDS011;57319;56.274;43.980;2023-02-15T04:23:51;23.27;;;12.00;;
69981;SDS011;57319;56.274;43.980;2023-02-15T04:26:35;26.83;;;11.65;;
69981;SDS011;57319;56.274;43.980;2023-02-15T04:29:01;22.20;;;11.68;;
69981;SDS011;57319;56.274;43.980;2023-02-15T04:31:27;23.23;;;12.05;;
69981;SDS011;57319;56.274;43.980;2023-02-15T04:33:52;20.70;;;11.48;;
69981;SDS011;57319;56.274;43.980;2023-02-15T04:36:18;25.33;;;12.43;;
69981;SDS011;57319;56.274;43.980;2023-02-15T04:38:43;23.77;;;12.20;;
69981;SDS011;57319;56.274;43.980;2023-02-15T04:41:09;23.27;;;11.73;;
69981;SDS011;57319;56.274;43.980;2023-02-15T04:43:36;21.88;;;12.02;;
69981;SDS011;57319;56.274;43.980;2023-02-15T04:46:02;17.08;;;10.50;;
69981;SDS011;57319;56.274;43.980;2023-02-15T04:48:27;20.73;;;10.65;;
69981;SDS011;57319;56.274;43.980;2023-02-15T04:50:53;23.08;;;11.70;;
69981;SDS011;57319;56.274;43.980;2023-02-15T04:53:18;46.80;;;11.80;;
69981;SDS011;57319;56.274;43.980;2023-02-15T04:55:44;23.90;;;11.55;;
69981;SDS011;57319;56.274;43.980;2023-02-15T04:58:09;20.98;;;11.88;;
69981;SDS011;57319;56.274;43.980;2023-02-15T05:00:35;24.38;;;12.40;;
69981;SDS011;57319;56.274;43.980;2023-02-15T05:03:01;21.77;;;12.70;;
69981;SDS011;57319;56.274;43.980;2023-02-15T05:05:27;29.27;;;13.50;;
69981;SDS011;57319;56.274;43.980;2023-02-15T05:07:52;26.30;;;13.63;;
69981;SDS011;57319;56.274;43.980;2023-02-15T05:10:18;25.05;;;13.15;;
69981;SDS011;57319;56.274;43.980;2023-02-15T05:12:44;30.05;;;14.00;;
69981;SDS011;57319;56.274;43.980;2023-02-15T05:15:10;27.77;;;13.02;;
69981;SDS011;57319;56.274;43.980;2023-02-15T05:17:36;20.52;;;12.55;;
69981;SDS011;57319;56.274;43.980;2023-02-15T05:20:02;23.33;;;13.13;;
69981;SDS011;57319;56.274;43.980;2023-02-15T05:22:28;24.45;;;11.77;;
69981;SDS011;57319;56.274;43.980;2023-02-15T05:24:54;26.00;;;13.13;;
69981;SDS011;57319;56.274;43.980;2023-02-15T05:27:38;31.98;;;13.35;;
69981;SDS011;57319;56.274;43.980;2023-02-15T05:30:22;23.02;;;11.95;;
69981;SDS011;57319;56.274;43.980;2023-02-15T05:32:48;23.88;;;12.85;;
69981;SDS011;57319;56.274;43.980;2023-02-15T05:35:14;23.60;;;13.13;;
69981;SDS011;57319;56.274;43.980;2023-02-15T05:37:41;28.25;;;13.65;;
69981;SDS011;57319;56.274;43.980;2023-02-15T05:40:07;24.50;;;13.02;;
69981;SDS011;57319;56.274;43.980;2023-02-15T05:42:33;23.75;;;12.43;;
69981;SDS011;57319;56.274;43.980;2023-02-15T05:44:59;23.88;;;13.52;;
69981;SDS011;57319;56.274;43.980;2023-02-15T05:47:24;19.65;;;12.18;;
69981;SDS011;57319;56.274;43.980;2023-02-15T05:49:50;21.88;;;13.05;;
69981;SDS011;57319;56.274;43.980;2023-02-15T05:52:16;20.70;;;11.82;;
69981;SDS011;57319;56.274;43.980;2023-02-15T05:54:41;18.77;;;11.48;;
69981;SDS011;57319;56.274;43.980;2023-02-15T05:57:07;26.70;;;11.30;;
69981;SDS011;57319;56.274;43.980;2023-02-15T05:59:32;22.17;;;12.35;;
69981;SDS011;57319;56.274;43.980;2023-02-15T06:01:58;19.67;;;10.85;;
69981;SDS011;57319;56.274;43.980;2023-02-15T06:04:24;17.98;;;11.20;;
69981;SDS011;57319;56.274;43.980;2023-02-15T06:06:49;19.17;;;10.55;;
69981;SDS011;57319;56.274;43.980;2023-02-15T06:09:15;17.70;;;9.73;;
69981;SDS011;57319;56.274;43.980;2023-02-15T06:11:46;19.80;;;11.27;;
69981;SDS011;57319;56.274;43.980;2023-02-15T06:14:12;23.73;;;11.88;;
69981;SDS011;57319;56.274;43.980;2023-02-15T06:16:37;20.55;;;11.25;;
69981;SDS011;57319;56.274;43.980;2023-02-15T06:19:03;20.80;;;10.80;;
69981;SDS011;57319;56.274;43.980;2023-02-15T06:21:29;18.40;;;10.48;;
69981;SDS011;57319;56.274;43.980;2023-02-15T06:23:55;21.42;;;10.07;;
69981;SDS011;57319;56.274;43.980;2023-02-15T06:26:21;25.30;;;10.93;;
69981;SDS011;57319;56.274;43.980;2023-02-15T06:28:47;20.42;;;10.98;;
69981;SDS011;57319;56.274;43.980;2023-02-15T06:31:12;18.77;;;11.32;;
69981;SDS011;57319;56.274;43.980;2023-02-15T06:33:38;20.40;;;10.25;;
69981;SDS011;57319;56.274;43.980;2023-02-15T06:36:04;17.35;;;10.40;;
69981;SDS011;57319;56.274;43.980;2023-02-15T06:38:30;19.40;;;10.80;;
69981;SDS011;57319;56.274;43.980;2023-02-15T06:40:55;21.67;;;10.40;;
69981;SDS011;57319;56.274;43.980;2023-02-15T06:43:21;17.77;;;10.65;;
69981;SDS011;57319;56.274;43.980;2023-02-15T06:45:47;24.30;;;12.15;;
69981;SDS011;57319;56.274;43.980;2023-02-15T06:48:12;19.48;;;10.85;;
69981;SDS011;57319;56.274;43.980;2023-02-15T06:50:38;19.90;;;10.55;;
69981;SDS011;57319;56.274;43.980;2023-02-15T06:53:04;21.85;;;10.68;;
69981;SDS011;57319;56.274;43.980;2023-02-15T06:55:29;16.98;;;10.38;;
69981;SDS011;57319;56.274;43.980;2023-02-15T06:57:55;19.65;;;10.52;;
69981;SDS011;57319;56.274;43.980;2023-02-15T07:00:21;19.40;;;10.73;;
69981;SDS011;57319;56.274;43.980;2023-02-15T07:02:50;19.30;;;10.18;;
69981;SDS011;57319;56.274;43.980;2023-02-15T07:05:20;18.27;;;10.98;;
69981;SDS011;57319;56.274;43.980;2023-02-15T07:07:47;23.75;;;12.27;;
69981;SDS011;57319;56.274;43.980;2023-02-15T07:10:12;22.95;;;11.18;;
69981;SDS011;57319;56.274;43.980;2023-02-15T07:12:38;16.38;;;11.45;;
69981;SDS011;57319;56.274;43.980;2023-02-15T07:15:17;17.38;;;10.65;;
69981;SDS011;57319;56.274;43.980;2023-02-15T07:17:46;21.17;;;12.10;;
69981;SDS011;57319;56.274;43.980;2023-02-15T07:20:16;22.10;;;11.55;;
69981;SDS011;57319;56.274;43.980;2023-02-15T07:22:44;26.35;;;13.00;;
69981;SDS011;57319;56.274;43.980;2023-02-15T07:25:10;17.80;;;10.98;;
69981;SDS011;57319;56.274;43.980;2023-02-15T07:27:37;18.73;;;11.25;;
69981;SDS011;57319;56.274;43.980;2023-02-15T07:30:04;21.60;;;9.88;;
69981;SDS011;57319;56.274;43.980;2023-02-15T07:32:31;19.27;;;11.57;;
69981;SDS011;57319;56.274;43.980;2023-02-15T07:34:57;20.20;;;10.95;;
69981;SDS011;57319;56.274;43.980;2023-02-15T07:37:24;24.38;;;12.35;;
69981;SDS011;57319;56.274;43.980;2023-02-15T07:39:51;16.42;;;11.48;;
69981;SDS011;57319;56.274;43.980;2023-02-15T07:42:16;17.35;;;10.50;;
69981;SDS011;57319;56.274;43.980;2023-02-15T07:44:44;19.23;;;11.00;;
69981;SDS011;57319;56.274;43.980;2023-02-15T07:47:10;17.58;;;11.05;;
69981;SDS011;57319;56.274;43.980;2023-02-15T07:49:36;17.58;;;11.10;;
69981;SDS011;57319;56.274;43.980;2023-02-15T07:52:02;17.17;;;9.88;;
69981;SDS011;57319;56.274;43.980;2023-02-15T07:54:27;17.67;;;9.68;;
69981;SDS011;57319;56.274;43.980;2023-02-15T07:56:53;21.30;;;11.38;;
69981;SDS011;57319;56.274;43.980;2023-02-15T07:59:18;18.48;;;10.02;;
69981;SDS011;57319;56.274;43.980;2023-02-15T08:01:44;17.48;;;10.15;;
69981;SDS011;57319;56.274;43.980;2023-02-15T08:04:10;16.83;;;10.70;;
69981;SDS011;57319;56.274;43.980;2023-02-15T08:06:36;16.75;;;9.88;;
69981;SDS011;57319;56.274;43.980;2023-02-15T08:09:03;17.92;;;9.07;;
69981;SDS011;57319;56.274;43.980;2023-02-15T08:11:33;15.38;;;10.18;;
69981;SDS011;57319;56.274;43.980;2023-02-15T08:14:13;19.38;;;11.32;;
69981;SDS011;57319;56.274;43.980;2023-02-15T08:16:49;18.17;;;9.93;;
69981;SDS011;57319;56.274;43.980;2023-02-15T08:19:27;18.50;;;9.95;;
69981;SDS011;57319;56.274;43.980;2023-02-15T08:21:55;14.82;;;10.00;;
69981;SDS011;57319;56.274;43.980;2023-02-15T08:24:34;15.10;;;9.70;;
69981;SDS011;57319;56.274;43.980;2023-02-15T08:27:06;19.80;;;10.98;;
69981;SDS011;57319;56.274;43.980;2023-02-15T08:29:33;16.23;;;9.63;;
69981;SDS011;57319;56.274;43.980;2023-02-15T08:32:01;23.08;;;10.38;;
69981;SDS011;57319;56.274;43.980;2023-02-15T08:34:33;23.40;;;10.65;;
69981;SDS011;57319;56.274;43.980;2023-02-15T08:37:00;14.57;;;9.77;;
69981;SDS011;57319;56.274;43.980;2023-02-15T08:39:27;17.95;;;10.25;;
69981;SDS011;57319;56.274;43.980;2023-02-15T08:41:53;18.25;;;10.20;;
69981;SDS011;57319;56.274;43.980;2023-02-15T08:44:19;27.23;;;10.63;;
69981;SDS011;57319;56.274;43.980;2023-02-15T08:46:46;17.42;;;9.65;;
69981;SDS011;57319;56.274;43.980;2023-02-15T08:49:15;18.23;;;9.88;;
69981;SDS011;57319;56.274;43.980;2023-02-15T08:51:46;18.77;;;10.13;;
69981;SDS011;57319;56.274;43.980;2023-02-15T08:54:13;18.33;;;9.95;;
69981;SDS011;57319;56.274;43.980;2023-02-15T08:56:41;14.63;;;9.25;;
69981;SDS011;57319;56.274;43.980;2023-02-15T08:59:12;14.70;;;9.60;;
69981;SDS011;57319;56.274;43.980;2023-02-15T09:01:42;12.48;;;8.15;;
69981;SDS011;57319;56.274;43.980;2023-02-15T09:04:09;16.60;;;10.05;;
69981;SDS011;57319;56.274;43.980;2023-02-15T09:06:38;18.27;;;10.23;;
69981;SDS011;57319;56.274;43.980;2023-02-15T09:09:05;16.10;;;8.95;;
69981;SDS011;57319;56.274;43.980;2023-02-15T09:11:41;13.57;;;8.38;;
69981;SDS011;57319;56.274;43.980;2023-02-15T09:14:09;15.32;;;9.25;;
69981;SDS011;57319;56.274;43.980;2023-02-15T09:16:39;16.30;;;8.25;;
69981;SDS011;57319;56.274;43.980;2023-02-15T09:19:05;16.95;;;8.15;;
69981;SDS011;57319;56.274;43.980;2023-02-15T09:21:32;19.50;;;8.55;;
69981;SDS011;57319;56.274;43.980;2023-02-15T09:24:01;16.17;;;8.90;;
69981;SDS011;57319;56.274;43.980;2023-02-15T09:26:30;12.27;;;8.57;;
69981;SDS011;57319;56.274;43.980;2023-02-15T09:28:58;10.90;;;8.05;;
69981;SDS011;57319;56.274;43.980;2023-02-15T09:31:47;15.07;;;8.70;;
69981;SDS011;57319;56.274;43.980;2023-02-15T09:34:14;11.55;;;8.80;;
69981;SDS011;57319;56.274;43.980;2023-02-15T09:36:43;12.32;;;8.43;;
69981;SDS011;57319;56.274;43.980;2023-02-15T09:39:14;15.95;;;9.10;;
69981;SDS011;57319;56.274;43.980;2023-02-15T09:41:55;14.07;;;8.20;;
69981;SDS011;57319;56.274;43.980;2023-02-15T09:50:35;12.27;;;7.55;;
69981;SDS011;57319;56.274;43.980;2023-02-15T09:55:56;10.23;;;7.93;;
69981;SDS011;57319;56.274;43.980;2023-02-15T09:58:56;9.95;;;6.60;;
69981;SDS011;57319;56.274;43.980;2023-02-15T10:06:51;8.32;;;7.45;;
69981;SDS011;57319;56.274;43.980;2023-02-15T10:09:35;14.60;;;9.18;;
69981;SDS011;57319;56.274;43.980;2023-02-15T10:14:43;11.60;;;7.70;;
69981;SDS011;57319;56.274;43.980;2023-02-15T10:17:28;10.73;;;7.97;;
69981;SDS011;57319;56.274;43.980;2023-02-15T10:23:55;12.90;;;7.20;;
69981;SDS011;57319;56.274;43.980;2023-02-15T10:39:23;12.02;;;8.40;;
69981;SDS011;57319;56.274;43.980;2023-02-15T10:44:45;14.00;;;9.10;;
69981;SDS011;57319;56.274;43.980;2023-02-15T10:47:30;10.10;;;7.90;;
69981;SDS011;57319;56.274;43.980;2023-02-15T10:50:12;10.43;;;7.70;;
69981;SDS011;57319;56.274;43.980;2023-02-15T11:07:50;9.48;;;7.40;;
69981;SDS011;57319;56.274;43.980;2023-02-15T11:12:56;9.85;;;6.72;;
69981;SDS011;57319;56.274;43.980;2023-02-15T11:18:39;9.50;;;6.28;;
69981;SDS011;57319;56.274;43.980;2023-02-15T11:21:17;9.70;;;6.97;;
69981;SDS011;57319;56.274;43.980;2023-02-15T11:23:48;13.95;;;7.05;;
69981;SDS011;57319;56.274;43.980;2023-02-15T11:31:53;9.18;;;6.82;;
69981;SDS011;57319;56.274;43.980;2023-02-15T11:37:44;9.02;;;7.38;;
69981;SDS011;57319;56.274;43.980;2023-02-15T11:40:22;10.90;;;7.57;;
69981;SDS011;57319;56.274;43.980;2023-02-15T11:42:53;12.32;;;6.78;;
69981;SDS011;57319;56.274;43.980;2023-02-15T11:45:26;12.13;;;7.07;;
69981;SDS011;57319;56.274;43.980;2023-02-15T11:47:54;8.48;;;6.53;;
69981;SDS011;57319;56.274;43.980;2023-02-15T11:50:22;14.70;;;7.13;;
69981;SDS011;57319;56.274;43.980;2023-02-15T11:52:50;10.30;;;6.18;;
69981;SDS011;57319;56.274;43.980;2023-02-15T11:55:19;9.95;;;6.38;;
69981;SDS011;57319;56.274;43.980;2023-02-15T11:58:02;5.05;;;4.43;;
69981;SDS011;57319;56.274;43.980;2023-02-15T12:00:49;6.53;;;5.00;;
69981;SDS011;57319;56.274;43.980;2023-02-15T12:03:22;8.30;;;6.43;;
69981;SDS011;57319;56.274;43.980;2023-02-15T12:05:58;9.45;;;7.03;;
69981;SDS011;57319;56.274;43.980;2023-02-15T12:08:33;9.35;;;7.28;;
69981;SDS011;57319;56.274;43.980;2023-02-15T12:11:11;11.45;;;7.90;;
69981;SDS011;57319;56.274;43.980;2023-02-15T12:13:54;13.43;;;8.32;;
69981;SDS011;57319;56.274;43.980;2023-02-15T12:16:24;14.85;;;8.18;;
69981;SDS011;57319;56.274;43.980;2023-02-15T12:18:52;11.93;;;8.77;;
69981;SDS011;57319;56.274;43.980;2023-02-15T12:24:00;13.02;;;8.32;;
69981;SDS011;57319;56.274;43.980;2023-02-15T12:26:30;12.75;;;7.85;;
69981;SDS011;57319;56.274;43.980;2023-02-15T12:29:00;12.10;;;8.20;;
69981;SDS011;57319;56.274;43.980;2023-02-15T12:31:33;9.57;;;8.05;;
69981;SDS011;57319;56.274;43.980;2023-02-15T12:34:09;13.75;;;8.90;;
69981;SDS011;57319;56.274;43.980;2023-02-15T12:36:46;9.45;;;7.15;;
69981;SDS011;57319;56.274;43.980;2023-02-15T12:39:20;10.65;;;7.80;;
69981;SDS011;57319;56.274;43.980;2023-02-15T12:44:23;15.75;;;9.20;;
69981;SDS011;57319;56.274;43.980;2023-02-15T12:47:01;13.32;;;9.25;;
69981;SDS011;57319;56.274;43.980;2023-02-15T12:49:28;17.67;;;8.20;;
69981;SDS011;57319;56.274;43.980;2023-02-15T12:52:04;15.25;;;8.30;;
69981;SDS011;57319;56.274;43.980;2023-02-15T12:54:47;22.23;;;9.30;;
69981;SDS011;57319;56.274;43.980;2023-02-15T12:57:30;15.05;;;9.63;;
69981;SDS011;57319;56.274;43.980;2023-02-15T13:00:05;15.65;;;9.18;;
69981;SDS011;57319;56.274;43.980;2023-02-15T13:02:51;17.95;;;8.70;;
69981;SDS011;57319;56.274;43.980;2023-02-15T13:05:35;16.83;;;9.00;;
69981;SDS011;57319;56.274;43.980;2023-02-15T13:13:38;15.80;;;9.82;;
69981;SDS011;57319;56.274;43.980;2023-02-15T13:16:17;13.55;;;9.10;;
69981;SDS011;57319;56.274;43.980;2023-02-15T13:18:56;11.10;;;7.43;;
69981;SDS011;57319;56.274;43.980;2023-02-15T13:21:24;21.08;;;9.75;;
69981;SDS011;57319;56.274;43.980;2023-02-15T13:24:10;15.40;;;9.10;;
69981;SDS011;57319;56.274;43.980;2023-02-15T13:26:45;16.95;;;9.88;;
69981;SDS011;57319;56.274;43.980;2023-02-15T13:29:23;18.02;;;10.13;;
69981;SDS011;57319;56.274;43.980;2023-02-15T13:31:51;16.98;;;9.73;;
69981;SDS011;57319;56.274;43.980;2023-02-15T13:39:54;11.48;;;8.45;;
69981;SDS011;57319;56.274;43.980;2023-02-15T13:42:43;16.35;;;9.43;;
69981;SDS011;57319;56.274;43.980;2023-02-15T13:50:38;13.18;;;8.75;;
69981;SDS011;57319;56.274;43.980;2023-02-15T13:53:53;12.73;;;8.18;;
69981;SDS011;57319;56.274;43.980;2023-02-15T14:04:20;19.55;;;9.18;;
69981;SDS011;57319;56.274;43.980;2023-02-15T14:07:03;11.23;;;8.32;;
69981;SDS011;57319;56.274;43.980;2023-02-15T14:31:38;11.88;;;8.90;;
69981;SDS011;57319;56.274;43.980;2023-02-15T14:34:17;12.95;;;9.00;;
69981;SDS011;57319;56.274;43.980;2023-02-15T14:36:49;12.32;;;7.97;;
69981;SDS011;57319;56.274;43.980;2023-02-15T14:42:28;11.90;;;8.15;;
69981;SDS011;57319;56.274;43.980;2023-02-15T14:45:31;17.83;;;8.38;;
69981;SDS011;57319;56.274;43.980;2023-02-15T14:51:04;11.90;;;7.43;;
69981;SDS011;57319;56.274;43.980;2023-02-15T15:01:30;14.18;;;8.18;;
69981;SDS011;57319;56.274;43.980;2023-02-15T15:04:02;12.18;;;8.00;;
69981;SDS011;57319;56.274;43.980;2023-02-15T15:06:34;12.50;;;8.07;;
69981;SDS011;57319;56.274;43.980;2023-02-15T15:11:42;9.35;;;6.53;;
69981;SDS011;57319;56.274;43.980;2023-02-15T15:14:10;12.35;;;8.07;;
69981;SDS011;57319;56.274;43.980;2023-02-15T15:16:56;10.80;;;7.05;;
69981;SDS011;57319;56.274;43.980;2023-02-15T15:22:25;11.73;;;7.35;;
69981;SDS011;57319;56.274;43.980;2023-02-15T15:35:33;8.98;;;6.88;;
69981;SDS011;57319;56.274;43.980;2023-02-15T15:49:23;13.48;;;7.75;;
69981;SDS011;57319;56.274;43.980;2023-02-15T15:51:53;12.05;;;7.72;;
69981;SDS011;57319;56.274;43.980;2023-02-15T15:54:20;9.90;;;7.35;;
69981;SDS011;57319;56.274;43.980;2023-02-15T15:57:00;8.15;;;6.47;;
69981;SDS011;57319;56.274;43.980;2023-02-15T15:59:29;8.40;;;6.50;;
69981;SDS011;57319;56.274;43.980;2023-02-15T16:02:03;12.88;;;6.95;;
69981;SDS011;57319;56.274;43.980;2023-02-15T16:04:33;8.57;;;7.15;;
69981;SDS011;57319;56.274;43.980;2023-02-15T16:07:13;9.00;;;7.10;;
69981;SDS011;57319;56.274;43.980;2023-02-15T16:12:30;6.75;;;5.80;;
69981;SDS011;57319;56.274;43.980;2023-02-15T16:15:00;8.93;;;6.72;;
69981;SDS011;57319;56.274;43.980;2023-02-15T16:17:30;9.05;;;6.18;;
69981;SDS011;57319;56.274;43.980;2023-02-15T16:20:01;10.63;;;6.57;;
69981;SDS011;57319;56.274;43.980;2023-02-15T16:22:33;10.57;;;6.47;;
69981;SDS011;57319;56.274;43.980;2023-02-15T16:25:19;10.30;;;6.85;;
69981;SDS011;57319;56.274;43.980;2023-02-15T16:27:47;6.38;;;5.57;;
69981;SDS011;57319;56.274;43.980;2023-02-15T16:30:29;6.63;;;5.95;;
69981;SDS011;57319;56.274;43.980;2023-02-15T16:33:10;12.53;;;6.27;;
69981;SDS011;57319;56.274;43.980;2023-02-15T16:35:56;10.93;;;6.43;;
69981;SDS011;57319;56.274;43.980;2023-02-15T16:39:07;8.57;;;5.80;;
69981;SDS011;57319;56.274;43.980;2023-02-15T16:41:15;7.75;;;5.63;;
69981;SDS011;57319;56.274;43.980;2023-02-15T16:43:42;9.32;;;6.68;;
69981;SDS011;57319;56.274;43.980;2023-02-15T16:46:15;9.60;;;6.75;;
69981;SDS011;57319;56.274;43.980;2023-02-15T16:48:59;7.38;;;6.07;;
69981;SDS011;57319;56.274;43.980;2023-02-15T16:51:28;8.35;;;6.43;;
69981;SDS011;57319;56.274;43.980;2023-02-15T16:53:57;10.18;;;6.38;;
69981;SDS011;57319;56.274;43.980;2023-02-15T16:56:31;6.93;;;6.00;;
69981;SDS011;57319;56.274;43.980;2023-02-15T16:58:57;7.65;;;5.57;;
69981;SDS011;57319;56.274;43.980;2023-02-15T17:01:26;7.40;;;5.88;;
69981;SDS011;57319;56.274;43.980;2023-02-15T17:04:11;10.43;;;6.22;;
69981;SDS011;57319;56.274;43.980;2023-02-15T17:07:05;8.02;;;5.50;;
69981;SDS011;57319;56.274;43.980;2023-02-15T17:10:00;7.22;;;5.80;;
69981;SDS011;57319;56.274;43.980;2023-02-15T17:15:24;12.30;;;6.97;;
69981;SDS011;57319;56.274;43.980;2023-02-15T17:17:51;7.65;;;6.05;;
69981;SDS011;57319;56.274;43.980;2023-02-15T17:20:17;9.93;;;5.90;;
69981;SDS011;57319;56.274;43.980;2023-02-15T17:22:44;5.25;;;4.75;;
69981;SDS011;57319;56.274;43.980;2023-02-15T17:25:16;7.78;;;5.90;;
69981;SDS011;57319;56.274;43.980;2023-02-15T17:27:49;8.30;;;6.18;;
69981;SDS011;57319;56.274;43.980;2023-02-15T17:30:21;6.15;;;5.60;;
69981;SDS011;57319;56.274;43.980;2023-02-15T17:33:02;8.15;;;6.50;;
69981;SDS011;57319;56.274;43.980;2023-02-15T17:35:29;6.18;;;5.57;;
69981;SDS011;57319;56.274;43.980;2023-02-15T17:38:04;11.70;;;6.80;;
69981;SDS011;57319;56.274;43.980;2023-02-15T17:40:32;9.40;;;6.20;;
69981;SDS011;57319;56.274;43.980;2023-02-15T17:42:59;8.82;;;5.65;;
69981;SDS011;57319;56.274;43.980;2023-02-15T17:45:29;8.88;;;5.57;;
69981;SDS011;57319;56.274;43.980;2023-02-15T17:47:57;12.82;;;6.45;;